Latest Coastal Weather Observations for Port Kembla Harbour

IDN60701

Issued at 11:11 pm EDT Saturday 18 November 2017 (issued every 10 minutes, with the page automatically refreshed every 10 minutes)

About coastal observations | Map of coastal stations | Coastal observations for NSW | Marine services | Other Formats
Station Details ID: 068253 Name: PORT KEMBLA NTC AWS Lat: -34.47 Lon: 150.91 Height: 0.0 m
Data from the previous 72 hours. | See also: Recent months for locations in New South Wales
Date/Time
EDT
Temp
°C
Wind Pressure Rain since
9am
mm
Weather Cloud Vis
km
Sea
Height
m
Swell
Dir  Spd
kts
Gust
kts
hPa Trend Height
m
Period
s
Dir
18/11:00pm 18.7 ENE 7 11 1021.7 - - - - - - - - -
18/10:30pm 18.7 ENE 8 12 1021.6 - - - - - - - - -
18/10:00pm 18.5 ENE 6 9 1021.5 - - - - - - - - -
18/09:30pm 18.7 ENE 8 12 1021.4 - - - - - - - - -
18/09:00pm 18.8 ENE 8 13 1021.1 - - - - - - - - -
18/08:30pm 18.8 ENE 10 13 1020.6 - - - - - - - - -
18/08:00pm 19.1 ENE 9 14 1020.3 - - - - - - - - -
18/07:30pm 19.0 ENE 10 14 1020.1 - - - - - - - - -
18/07:00pm 18.9 ENE 9 12 1019.9 - - - - - - - - -
18/06:30pm 19.0 ENE 7 11 1019.7 - - - - - - - - -
18/06:00pm 19.0 E 7 11 1019.5 - - - - - - - - -
18/05:30pm 19.0 E 6 9 1019.4 - - - - - - - - -
18/05:00pm 19.1 ENE 5 8 1019.5 - - - - - - - - -
18/04:30pm 19.3 ENE 7 12 1019.6 - - - - - - - - -
18/04:00pm 19.4 ENE 7 11 1019.6 - - - - - - - - -
18/03:30pm 19.6 ENE 7 11 1019.7 - - - - - - - - -
18/03:00pm 19.8 ENE 8 12 1019.8 - - - - - - - - -
18/02:30pm 19.5 ENE 5 9 1020.0 - - - - - - - - -
18/02:00pm 18.6 NE 5 7 1020.1 - - - - - - - - -
18/01:30pm 18.6 NE 8 10 1020.2 - - - - - - - - -
18/01:00pm 18.7 NNE 6 13 1020.4 - - - - - - - - -
18/12:30pm 18.9 NNE 6 8 1020.4 - - - - - - - - -
18/12:00pm 18.5 NNE 11 15 1020.6 - - - - - - - - -
18/11:30am 18.2 NNE 14 19 1020.6 - - - - - - - - -
18/11:00am 18.5 NNE 9 12 1020.4 - - - - - - - - -
18/10:30am 18.4 NE 10 15 1020.2 - - - - - - - - -
18/10:00am 19.2 NE 8 13 1019.7 - - - - - - - - -
18/09:30am 19.2 NE 9 14 1019.6 - - - - - - - - -
18/09:00am 19.4 NE 7 18 1019.6 - - - - - - - - -
18/08:30am 17.2 NNE 13 20 1019.8 - - - - - - - - -
18/08:00am 17.0 NE 11 15 1019.6 - - - - - - - - -
18/07:30am 17.8 NE 13 19 1019.0 - - - - - - - - -
18/07:00am 16.8 ENE 13 19 1019.0 - - - - - - - - -
18/06:30am 17.6 ENE 15 23 1018.5 - - - - - - - - -
18/06:00am 18.4 NE 7 14 1018.3 - - - - - - - - -
18/05:30am 18.1 NE 7 11 1018.1 - - - - - - - - -
18/05:00am 18.2 NE 13 20 1017.7 - - - - - - - - -
18/04:30am 18.3 NE 8 13 1017.6 - - - - - - - - -
18/04:00am 18.8 NNE 9 12 1017.7 - - - - - - - - -
18/03:30am 18.4 NNE 10 14 1017.7 - - - - - - - - -
18/03:00am 17.6 NE 14 23 1018.0 - - - - - - - - -
18/02:30am 17.3 NE 7 10 1018.4 - - - - - - - - -
18/02:00am 17.2 NE 6 9 1018.5 - - - - - - - - -
18/01:30am 17.3 NE 7 10 1018.5 - - - - - - - - -
18/01:00am 18.1 N 5 8 1019.0 - - - - - - - - -
18/12:30am 18.1 N 6 10 1018.9 - - - - - - - - -
18/12:00am 18.6 NNE 13 21 1019.2 - - - - - - - - -
 
Date/Time
EDT
Temp
°C
Wind Pressure Rain since
9am
mm
Weather Cloud Vis
km
Sea
Height
m
Swell
Dir  Spd
kts
Gust
kts
hPa Trend Height
m
Period
s
Dir
17/11:30pm 18.0 N 7 14 1019.0 - - - - - - - - -
17/11:00pm 19.5 ENE 12 17 1018.9 - - - - - - - - -
17/10:30pm 19.6 ENE 12 18 1018.7 - - - - - - - - -
17/10:00pm 19.7 ENE 11 18 1018.4 - - - - - - - - -
17/09:30pm 19.7 ENE 10 16 1018.7 - - - - - - - - -
17/09:00pm 19.7 E 12 17 1018.4 - - - - - - - - -
17/08:30pm 19.7 E 10 15 1018.3 - - - - - - - - -
17/08:00pm 19.8 E 11 17 1017.9 - - - - - - - - -
17/07:30pm 19.6 ENE 9 15 1017.6 - - - - - - - - -
17/07:00pm 19.6 ENE 8 12 1017.5 - - - - - - - - -
17/06:30pm 20.1 NE 9 14 1017.1 - - - - - - - - -
17/06:00pm 19.6 NE 3 4 1016.9 - - - - - - - - -
17/05:30pm 19.4 NNE 5 8 1016.3 - - - - - - - - -
17/05:00pm 19.6 NNE 9 11 1016.2 - - - - - - - - -
17/04:30pm 19.6 NNE 8 11 1016.5 - - - - - - - - -
17/04:00pm 19.7 NE 9 13 1016.4 - - - - - - - - -
17/03:30pm 19.8 NE 11 14 1016.3 - - - - - - - - -
17/03:00pm 20.0 NNE 11 15 1016.6 - - - - - - - - -
17/02:30pm 20.2 NE 14 19 1016.5 - - - - - - - - -
17/02:00pm 20.1 NE 15 21 1016.9 - - - - - - - - -
17/01:30pm 20.2 NE 17 23 1017.1 - - - - - - - - -
17/01:00pm 20.4 NE 16 21 1017.1 - - - - - - - - -
17/12:30pm 20.4 NE 14 19 1017.5 - - - - - - - - -
17/12:00pm 20.4 NE 17 22 1017.7 - - - - - - - - -
17/11:30am 20.6 NE 17 23 1017.8 - - - - - - - - -
17/11:00am 20.6 NE 13 19 1017.9 - - - - - - - - -
17/10:30am 20.4 NE 15 21 1017.9 - - - - - - - - -
17/10:00am 20.4 NE 15 20 1017.7 - - - - - - - - -
17/09:30am 20.3 NNE 12 18 1017.6 - - - - - - - - -
17/09:00am 20.0 NNE 9 12 1017.6 - - - - - - - - -
17/08:30am 20.0 NNE 9 12 1017.4 - - - - - - - - -
17/08:00am 20.1 NNE 5 7 1017.2 - - - - - - - - -
17/07:30am 19.8 NNE 6 9 1017.0 - - - - - - - - -
17/07:00am 19.1 NNE 3 5 1016.7 - - - - - - - - -
17/06:30am 19.1 NNE 5 7 1016.4 - - - - - - - - -
17/06:00am 19.0 NE 7 9 1015.7 - - - - - - - - -
17/05:30am 19.1 NNE 7 10 1015.6 - - - - - - - - -
17/05:00am 19.1 NNE 6 9 1015.6 - - - - - - - - -
17/04:30am 18.9 NNE 5 7 1015.6 - - - - - - - - -
17/04:00am 19.1 NNE 6 9 1015.5 - - - - - - - - -
17/03:30am 19.2 NNE 6 8 1015.5 - - - - - - - - -
17/03:00am 19.3 N 6 10 1015.6 - - - - - - - - -
17/02:30am 19.4 N 6 9 1015.6 - - - - - - - - -
17/02:00am 19.5 NNE 7 10 1015.9 - - - - - - - - -
17/01:30am 20.0 N 7 10 1016.2 - - - - - - - - -
17/01:00am 19.9 N 8 13 1016.0 - - - - - - - - -
17/12:30am 19.7 N 8 11 1015.8 - - - - - - - - -
17/12:00am 19.6 NNE 10 13 1016.1 - - - - - - - - -
 
Date/Time
EDT
Temp
°C
Wind Pressure Rain since
9am
mm
Weather Cloud Vis
km
Sea
Height
m
Swell
Dir  Spd
kts
Gust
kts
hPa Trend Height
m
Period
s
Dir
16/11:30pm 19.3 NNE 8 10 1016.2 - - - - - - - - -
16/11:00pm 19.5 NNE 8 11 1016.2 - - - - - - - - -
16/10:30pm 19.6 NNE 10 13 1016.0 - - - - - - - - -
16/10:00pm 19.6 NNE 10 12 1016.2 - - - - - - - - -
16/09:30pm 19.6 NNE 9 12 1016.4 - - - - - - - - -
16/09:00pm 19.4 NNE 7 11 1016.0 - - - - - - - - -
16/08:30pm 19.4 NNE 7 9 1015.8 - - - - - - - - -
16/08:00pm 19.6 NE 7 9 1015.6 - - - - - - - - -
16/07:30pm 19.5 NE 9 11 1015.4 - - - - - - - - -
16/07:00pm 19.6 NE 10 14 1015.0 - - - - - - - - -
16/06:30pm 19.8 NE 10 14 1014.8 - - - - - - - - -
16/06:00pm 20.0 NE 10 13 1014.4 - - - - - - - - -
16/05:30pm 20.4 NE 12 16 1014.1 - - - - - - - - -
16/05:00pm 20.4 NE 12 16 1014.1 - - - - - - - - -
16/04:30pm 20.2 NE 8 11 1014.2 - - - - - - - - -
16/04:00pm 20.1 NE 9 12 1014.2 - - - - - - - - -
16/03:30pm 20.2 NE 10 14 1014.4 - - - - - - - - -
16/03:00pm 20.4 NE 11 15 1014.5 - - - - - - - - -
16/02:30pm 20.7 NE 14 19 1014.5 - - - - - - - - -
16/02:00pm 20.9 NE 16 22 1014.7 - - - - - - - - -
16/01:30pm 20.8 NE 15 21 1014.8 - - - - - - - - -
16/01:00pm 20.9 NE 15 21 1015.2 - - - - - - - - -
16/12:30pm 20.5 NE 13 17 1015.6 - - - - - - - - -
16/12:00pm 20.6 NE 16 21 1015.5 - - - - - - - - -
16/11:30am 20.6 NE 15 20 1015.6 - - - - - - - - -
16/11:00am 20.3 NE 13 18 1015.9 - - - - - - - - -
16/10:30am 20.4 NE 15 20 1015.9 - - - - - - - - -

Other Formats:

Comma delimited format used in spreadsheet applications
http://www.bom.gov.au/fwo/IDN60701/IDN60701.95745.axf

JavaScript Object Notation format (JSON) in row-major order
http://www.bom.gov.au/fwo/IDN60701/IDN60701.95745.json